Time;durP1;ratioP1;P1;durP2;ratioP2;P2;SDS_P1;SDS_P2;PMS_P1;PMS_P2;Temp;Humidity;BMP_temperature;BMP_pressure;BME280_temperature;BME280_humidity;BME280_pressure;Samples;Min_cycle;Max_cycle;Signal;HPM_P1;HPM_P2
2024/03/08 00:00:09;;;;;;;54.88;40.47;;;5.70;99.90;;;;;;5035370;28;20059;-65
2024/03/08 00:02:37;;;;;;;59.45;40.80;;;5.60;99.90;;;;;;5035298;28;20060;-66
2024/03/08 00:05:04;;;;;;;56.83;41.20;;;5.60;99.90;;;;;;5034846;28;20120;-66
2024/03/08 00:07:31;;;;;;;61.10;41.33;;;5.60;99.90;;;;;;5035182;28;20069;-64
2024/03/08 00:09:57;;;;;;;60.22;41.35;;;5.60;99.90;;;;;;5035206;28;20041;-63
2024/03/08 00:12:26;;;;;;;60.28;41.63;;;5.60;99.90;;;;;;5034367;28;20136;-64
2024/03/08 00:14:54;;;;;;;58.08;42.28;;;5.50;99.90;;;;;;5035164;28;20053;-64
2024/03/08 00:17:25;;;;;;;55.08;41.53;;;5.60;99.90;;;;;;5034622;28;20390;-64
2024/03/08 00:19:52;;;;;;;60.35;40.90;;;5.50;99.90;;;;;;5035638;28;20068;-64
2024/03/08 00:22:18;;;;;;;59.72;42.30;;;5.60;99.90;;;;;;5035101;28;20149;-64
2024/03/08 00:24:45;;;;;;;66.72;42.33;;;5.50;99.90;;;;;;5034809;28;20553;-64
2024/03/08 00:27:12;;;;;;;59.00;42.53;;;5.50;99.90;;;;;;5035534;28;20099;-65
2024/03/08 00:29:39;;;;;;;64.32;43.20;;;5.50;99.90;;;;;;5035219;28;20041;-64
2024/03/08 00:32:07;;;;;;;58.47;40.38;;;5.50;99.90;;;;;;5034975;28;20041;-64
2024/03/08 00:34:35;;;;;;;63.97;43.10;;;5.50;99.90;;;;;;5035065;28;20038;-64
2024/03/08 00:37:01;;;;;;;62.95;42.45;;;5.50;99.90;;;;;;5034820;28;20489;-64
2024/03/08 00:39:28;;;;;;;58.63;41.78;;;5.50;99.90;;;;;;5034668;28;20080;-64
2024/03/08 00:41:55;;;;;;;63.53;41.83;;;5.40;99.90;;;;;;5035009;28;20045;-64
2024/03/08 00:44:22;;;;;;;63.08;43.83;;;5.50;99.90;;;;;;5034562;28;20500;-64
2024/03/08 00:46:49;;;;;;;65.43;42.53;;;5.40;99.90;;;;;;5033070;28;20375;-64
2024/03/08 00:49:18;;;;;;;61.53;41.28;;;5.50;99.90;;;;;;5034389;28;20128;-64
2024/03/08 00:51:45;;;;;;;57.88;41.38;;;5.50;99.90;;;;;;5034929;28;20045;-64
2024/03/08 00:54:12;;;;;;;63.03;40.72;;;5.40;99.90;;;;;;5034376;28;20038;-64
2024/03/08 00:56:39;;;;;;;62.83;42.58;;;5.40;99.90;;;;;;5034748;28;20561;-64
2024/03/08 00:59:06;;;;;;;61.80;41.10;;;5.40;99.90;;;;;;5034399;28;20042;-65
2024/03/08 01:01:33;;;;;;;64.47;41.20;;;5.50;99.90;;;;;;5034517;28;20056;-64
2024/03/08 01:03:59;;;;;;;62.78;40.83;;;5.50;99.90;;;;;;5034302;28;20057;-64
2024/03/08 01:06:27;;;;;;;56.28;39.22;;;5.50;99.90;;;;;;5034201;28;20042;-64
2024/03/08 01:08:53;;;;;;;59.50;39.97;;;5.50;99.90;;;;;;5034334;28;20037;-64
2024/03/08 01:11:20;;;;;;;61.17;39.95;;;5.50;99.90;;;;;;5034552;28;20057;-64
2024/03/08 01:13:47;;;;;;;59.25;40.60;;;5.50;99.90;;;;;;5034106;28;20041;-64
2024/03/08 01:16:14;;;;;;;61.35;40.38;;;5.50;99.90;;;;;;5033716;28;20376;-64
2024/03/08 01:18:42;;;;;;;58.40;39.33;;;5.40;99.90;;;;;;5034055;28;20049;-64
2024/03/08 01:21:09;;;;;;;60.50;39.70;;;5.50;99.90;;;;;;5033942;28;20099;-64
2024/03/08 01:23:37;;;;;;;56.90;38.65;;;5.40;99.90;;;;;;5034056;28;20045;-64
2024/03/08 01:26:04;;;;;;;60.22;40.35;;;5.40;99.90;;;;;;5033810;28;20404;-64
2024/03/08 01:28:31;;;;;;;54.15;37.85;;;5.40;99.90;;;;;;5033638;28;20038;-64
2024/03/08 01:30:58;;;;;;;56.92;36.25;;;5.40;99.90;;;;;;5033960;28;20049;-64
2024/03/08 01:33:25;;;;;;;61.60;38.88;;;5.40;99.90;;;;;;5033916;28;20041;-64
2024/03/08 01:35:52;;;;;;;57.13;36.75;;;5.40;99.90;;;;;;5034226;28;20439;-64
2024/03/08 01:38:19;;;;;;;49.85;36.05;;;5.40;99.90;;;;;;5034139;28;20099;-63
2024/03/08 01:40:46;;;;;;;58.00;37.80;;;5.40;99.90;;;;;;5034095;28;20049;-64
2024/03/08 01:43:12;;;;;;;52.15;35.65;;;5.40;99.90;;;;;;5033914;28;20375;-64
2024/03/08 01:45:39;;;;;;;59.45;36.85;;;5.40;99.90;;;;;;5033704;28;20490;-64
2024/03/08 01:48:06;;;;;;;52.58;36.35;;;5.30;99.90;;;;;;5033470;28;20049;-64
2024/03/08 01:50:33;;;;;;;52.63;35.78;;;5.30;99.90;;;;;;5033995;28;20073;-64
2024/03/08 01:53:00;;;;;;;50.80;35.42;;;5.30;99.90;;;;;;5033497;28;20045;-64
2024/03/08 01:55:27;;;;;;;55.25;36.20;;;5.30;99.90;;;;;;5032507;28;20038;-64
2024/03/08 01:57:54;;;;;;;55.15;35.97;;;5.30;99.90;;;;;;5033562;28;20038;-64
2024/03/08 02:00:21;;;;;;;57.20;36.63;;;5.30;99.90;;;;;;5033531;28;20050;-64
2024/03/08 02:02:47;;;;;;;55.80;36.78;;;5.30;99.90;;;;;;5033803;28;20530;-64
2024/03/08 02:05:14;;;;;;;51.28;36.58;;;5.30;99.90;;;;;;5033635;28;20116;-64
2024/03/08 02:07:43;;;;;;;55.13;36.28;;;5.20;99.90;;;;;;5033427;28;20037;-64
2024/03/08 02:10:12;;;;;;;50.78;34.35;;;5.20;99.90;;;;;;5033480;28;20033;-64
2024/03/08 02:12:39;;;;;;;56.78;34.95;;;5.20;99.90;;;;;;5033874;28;20048;-64
2024/03/08 02:15:08;;;;;;;54.13;35.13;;;5.10;99.90;;;;;;5032957;28;20056;-64
2024/03/08 02:17:36;;;;;;;52.25;34.67;;;5.10;99.90;;;;;;5033241;28;20041;-64
2024/03/08 02:20:04;;;;;;;52.80;35.80;;;5.10;99.90;;;;;;5033333;28;20045;-64
2024/03/08 02:22:34;;;;;;;53.10;34.17;;;5.10;99.90;;;;;;5033043;28;20486;-64
2024/03/08 02:25:01;;;;;;;53.53;34.90;;;5.10;99.90;;;;;;5033483;28;20064;-64
2024/03/08 02:27:29;;;;;;;51.25;34.45;;;5.10;99.90;;;;;;5033657;28;20128;-65
2024/03/08 02:29:56;;;;;;;49.40;34.30;;;5.00;99.90;;;;;;5036150;28;20037;-64
2024/03/08 02:32:23;;;;;;;55.15;34.42;;;5.00;99.90;;;;;;5037426;28;20060;-64
2024/03/08 02:34:50;;;;;;;57.47;35.92;;;5.00;99.90;;;;;;5036287;28;20045;-64
2024/03/08 02:37:17;;;;;;;52.22;36.22;;;5.00;99.90;;;;;;5037093;28;20092;-64
2024/03/08 02:39:43;;;;;;;48.47;33.53;;;5.00;99.90;;;;;;5037167;28;20046;-64
2024/03/08 02:42:10;;;;;;;47.53;33.22;;;5.00;99.90;;;;;;5036816;28;20046;-65
2024/03/08 02:44:37;;;;;;;51.92;33.28;;;4.90;99.90;;;;;;5036873;28;20454;-64
2024/03/08 02:47:05;;;;;;;54.08;35.03;;;4.90;99.90;;;;;;5036489;28;20453;-64
2024/03/08 02:49:32;;;;;;;52.42;34.78;;;4.90;99.90;;;;;;5036628;28;20061;-64
2024/03/08 02:51:59;;;;;;;49.75;33.85;;;4.90;99.90;;;;;;5035158;28;20147;-65
2024/03/08 02:54:26;;;;;;;50.83;33.63;;;4.90;99.90;;;;;;5036510;28;20387;-64
2024/03/08 02:56:53;;;;;;;46.50;31.90;;;4.80;99.90;;;;;;5035242;28;20048;-64
2024/03/08 02:59:19;;;;;;;53.90;34.25;;;4.80;99.90;;;;;;5036226;28;20037;-64
2024/03/08 03:01:46;;;;;;;55.42;34.13;;;4.80;99.90;;;;;;5036173;28;20045;-64
2024/03/08 03:04:13;;;;;;;51.22;34.83;;;4.80;99.90;;;;;;5036518;28;20042;-64
2024/03/08 03:06:40;;;;;;;54.05;34.05;;;4.80;99.90;;;;;;5036277;28;20034;-64
2024/03/08 03:09:06;;;;;;;48.75;32.92;;;4.80;99.90;;;;;;5035905;28;20470;-64
2024/03/08 03:11:33;;;;;;;46.25;31.35;;;4.70;99.90;;;;;;5036084;28;20037;-64
2024/03/08 03:14:00;;;;;;;51.05;32.13;;;4.70;99.90;;;;;;5035928;28;20068;-62
2024/03/08 03:16:27;;;;;;;51.05;32.60;;;4.70;99.90;;;;;;5035482;28;20120;-64
2024/03/08 03:18:54;;;;;;;46.67;32.67;;;4.70;99.90;;;;;;5035781;28;20402;-64
2024/03/08 03:21:21;;;;;;;48.95;31.85;;;4.70;99.90;;;;;;5035480;28;20049;-64
2024/03/08 03:23:48;;;;;;;51.05;33.38;;;4.70;99.90;;;;;;5036106;28;20099;-64
2024/03/08 03:26:17;;;;;;;48.85;32.53;;;4.60;99.90;;;;;;5035384;28;20069;-64
2024/03/08 03:28:44;;;;;;;48.65;31.48;;;4.60;99.90;;;;;;5035573;28;20041;-64
2024/03/08 03:31:14;;;;;;;52.80;32.35;;;4.60;99.90;;;;;;5033967;28;20422;-64
2024/03/08 03:33:41;;;;;;;49.58;32.63;;;4.60;99.90;;;;;;5035258;28;20577;-64
2024/03/08 03:36:09;;;;;;;50.95;32.20;;;4.50;99.90;;;;;;5035611;28;20068;-64
2024/03/08 03:38:37;;;;;;;46.58;31.58;;;4.50;99.90;;;;;;5034117;28;20047;-64
2024/03/08 03:41:10;;;;;;;50.55;31.85;;;4.50;99.90;;;;;;5034934;28;20445;-64
2024/03/08 03:43:40;;;;;;;51.50;30.98;;;4.50;99.90;;;;;;5035348;28;20045;-65
2024/03/08 03:46:07;;;;;;;48.88;32.28;;;4.50;99.90;;;;;;5035068;28;20395;-64
2024/03/08 03:48:34;;;;;;;48.90;31.67;;;4.40;99.90;;;;;;5035030;28;20049;-64
2024/03/08 03:51:01;;;;;;;49.30;32.53;;;4.40;99.90;;;;;;5035050;28;20044;-64
2024/03/08 03:53:28;;;;;;;49.10;32.88;;;4.40;99.90;;;;;;5035094;28;20383;-64
2024/03/08 03:55:54;;;;;;;49.00;32.22;;;4.40;99.90;;;;;;5034927;28;20041;-64
2024/03/08 03:58:22;;;;;;;48.45;33.00;;;4.40;99.90;;;;;;5035173;28;20041;-64
2024/03/08 04:00:49;;;;;;;47.03;32.00;;;4.40;99.90;;;;;;5034955;28;20494;-64
2024/03/08 04:03:16;;;;;;;46.25;31.30;;;4.40;99.90;;;;;;5035165;28;20148;-64
2024/03/08 04:05:43;;;;;;;49.13;32.83;;;4.40;99.90;;;;;;5034696;28;20099;-64
2024/03/08 04:08:11;;;;;;;49.80;32.80;;;4.40;99.90;;;;;;5035165;28;20383;-64
2024/03/08 04:10:38;;;;;;;44.47;31.42;;;4.40;99.90;;;;;;5034991;28;20041;-64
2024/03/08 04:13:04;;;;;;;48.03;31.38;;;4.40;99.90;;;;;;5033985;28;20068;-64
2024/03/08 04:15:31;;;;;;;51.55;31.63;;;4.40;99.90;;;;;;5034601;28;20045;-64
2024/03/08 04:18:00;;;;;;;50.80;32.17;;;4.40;99.90;;;;;;5035133;28;20113;-64
2024/03/08 04:20:27;;;;;;;46.47;31.85;;;4.40;99.90;;;;;;5035388;28;20041;-64
2024/03/08 04:22:54;;;;;;;44.75;29.65;;;4.40;99.90;;;;;;5035250;28;20466;-64
2024/03/08 04:25:21;;;;;;;50.72;32.17;;;4.40;99.90;;;;;;5035371;28;20471;-64
2024/03/08 04:27:49;;;;;;;44.22;31.77;;;4.40;99.90;;;;;;5035350;28;20045;-64
2024/03/08 04:30:16;;;;;;;50.15;30.92;;;4.40;99.90;;;;;;5034693;28;20071;-64
2024/03/08 04:32:43;;;;;;;47.05;31.35;;;4.40;99.90;;;;;;5035088;28;20072;-64
2024/03/08 04:35:10;;;;;;;44.58;30.23;;;4.40;99.90;;;;;;5035038;28;20063;-64
2024/03/08 04:37:39;;;;;;;44.33;31.13;;;4.40;99.90;;;;;;5035105;28;20049;-64
2024/03/08 04:40:06;;;;;;;48.28;31.27;;;4.40;99.90;;;;;;5035113;28;20057;-64
2024/03/08 04:42:33;;;;;;;46.30;31.10;;;4.30;99.90;;;;;;5034216;28;20042;-64
2024/03/08 04:45:00;;;;;;;47.05;30.55;;;4.40;99.90;;;;;;5033038;28;20525;-64
2024/03/08 04:47:27;;;;;;;43.10;30.15;;;4.30;99.90;;;;;;5034182;28;20045;-64
2024/03/08 04:49:54;;;;;;;44.60;30.85;;;4.30;99.90;;;;;;5033916;28;20130;-64
2024/03/08 04:52:21;;;;;;;44.80;30.42;;;4.30;99.90;;;;;;5033947;28;20052;-64
2024/03/08 04:54:49;;;;;;;45.70;30.23;;;4.30;99.90;;;;;;5034324;28;20064;-64
2024/03/08 04:57:18;;;;;;;47.05;30.70;;;4.30;99.90;;;;;;5034071;28;20387;-64
2024/03/08 04:59:45;;;;;;;46.75;30.42;;;4.30;99.90;;;;;;5033714;28;20088;-64
2024/03/08 05:02:12;;;;;;;49.63;29.88;;;4.30;99.90;;;;;;5034324;28;20041;-64
2024/03/08 05:04:39;;;;;;;44.97;28.95;;;4.30;99.90;;;;;;5033647;28;20124;-64
2024/03/08 05:07:06;;;;;;;47.85;30.70;;;4.30;99.90;;;;;;5034226;28;20033;-64
2024/03/08 05:09:33;;;;;;;51.80;29.33;;;4.30;99.90;;;;;;5034510;28;20043;-64
2024/03/08 05:12:01;;;;;;;50.55;31.38;;;4.30;99.90;;;;;;5033436;28;20099;-64
2024/03/08 05:14:29;;;;;;;42.00;30.05;;;4.30;99.90;;;;;;5033968;28;20451;-64
2024/03/08 05:16:56;;;;;;;41.30;29.75;;;4.20;99.90;;;;;;5013021;28;20427;-64
2024/03/08 05:19:23;;;;;;;46.58;31.88;;;4.20;99.90;;;;;;5012059;28;20136;-64
2024/03/08 05:21:50;;;;;;;47.15;30.10;;;4.20;99.90;;;;;;5013469;28;20065;-64
2024/03/08 05:24:17;;;;;;;43.50;29.02;;;4.20;99.90;;;;;;5013193;28;20125;-64
2024/03/08 05:26:44;;;;;;;54.08;30.33;;;4.20;99.90;;;;;;5012722;28;20088;-64
2024/03/08 05:29:12;;;;;;;46.35;30.13;;;4.20;99.90;;;;;;5012882;28;20084;-64
2024/03/08 05:31:39;;;;;;;43.67;30.00;;;4.20;99.90;;;;;;5012914;28;20041;-64
2024/03/08 05:34:10;;;;;;;43.97;30.13;;;4.10;99.90;;;;;;5012645;28;20038;-64
2024/03/08 05:36:37;;;;;;;43.55;28.65;;;4.10;99.90;;;;;;5011408;28;20384;-64
2024/03/08 05:39:06;;;;;;;46.55;31.08;;;4.10;99.90;;;;;;5012567;28;20483;-64
2024/03/08 05:41:33;;;;;;;43.88;30.00;;;4.10;99.90;;;;;;5013042;28;20399;-64
2024/03/08 05:43:59;;;;;;;43.63;29.70;;;4.10;99.90;;;;;;5012727;28;20084;-64
2024/03/08 05:46:26;;;;;;;43.17;29.20;;;4.10;99.90;;;;;;5012942;28;20041;-65
2024/03/08 05:48:54;;;;;;;48.42;30.83;;;4.10;99.90;;;;;;5012417;28;20533;-65
2024/03/08 05:51:21;;;;;;;45.72;29.85;;;4.10;99.90;;;;;;5012592;28;20096;-65
2024/03/08 05:53:48;;;;;;;45.38;30.00;;;4.10;99.90;;;;;;5012944;28;20376;-65
2024/03/08 05:56:15;;;;;;;44.97;30.05;;;4.10;99.90;;;;;;5012659;28;20038;-65
2024/03/08 05:58:41;;;;;;;46.10;30.55;;;4.00;99.90;;;;;;5012968;28;20372;-65
2024/03/08 06:01:10;;;;;;;42.03;29.67;;;4.10;99.90;;;;;;5012480;28;20037;-64
2024/03/08 06:03:41;;;;;;;46.63;30.42;;;4.10;99.90;;;;;;5010963;28;20046;-65
2024/03/08 06:06:08;;;;;;;45.53;29.90;;;4.00;99.90;;;;;;5012661;28;20364;-66
2024/03/08 06:08:35;;;;;;;50.03;30.42;;;4.10;99.90;;;;;;5012665;28;20046;-67
2024/03/08 06:11:02;;;;;;;44.28;30.17;;;4.10;99.90;;;;;;5012263;28;20136;-66
2024/03/08 06:13:31;;;;;;;51.58;32.72;;;4.10;99.90;;;;;;5012664;28;20052;-66
2024/03/08 06:15:57;;;;;;;48.45;30.90;;;4.10;99.90;;;;;;4982311;28;1219145;-66
2024/03/08 06:18:24;;;;;;;48.53;31.13;;;4.10;99.90;;;;;;5033159;28;20108;-67
2024/03/08 06:20:51;;;;;;;53.45;31.55;;;4.10;99.90;;;;;;5032738;28;20458;-67
2024/03/08 06:23:21;;;;;;;52.15;32.15;;;4.10;99.90;;;;;;5033021;28;20064;-66
2024/03/08 06:25:48;;;;;;;50.60;33.03;;;4.10;99.90;;;;;;5032559;28;20041;-66
2024/03/08 06:28:15;;;;;;;51.28;31.35;;;4.10;99.90;;;;;;5032996;28;20049;-66
2024/03/08 06:30:43;;;;;;;52.08;32.15;;;4.10;99.90;;;;;;5032328;28;20048;-67
2024/03/08 06:33:10;;;;;;;50.63;33.65;;;4.10;99.90;;;;;;5032955;28;20517;-67
2024/03/08 06:35:40;;;;;;;52.78;33.20;;;4.10;99.90;;;;;;5032566;28;20474;-67
2024/03/08 06:38:07;;;;;;;54.75;34.17;;;4.20;99.90;;;;;;5032487;28;20040;-67
2024/03/08 06:40:34;;;;;;;55.33;33.63;;;4.20;99.90;;;;;;5032347;28;20124;-66
2024/03/08 06:43:05;;;;;;;57.08;32.70;;;4.20;99.90;;;;;;5031664;28;20095;-66
2024/03/08 06:45:32;;;;;;;51.28;32.35;;;4.20;99.90;;;;;;5032784;28;20413;-65
2024/03/08 06:48:00;;;;;;;51.03;32.63;;;4.20;99.90;;;;;;5031364;28;20088;-66
2024/03/08 06:50:27;;;;;;;55.17;34.78;;;4.20;99.90;;;;;;5032260;28;20398;-65
2024/03/08 06:52:53;;;;;;;53.95;32.30;;;4.20;99.90;;;;;;5032886;28;20485;-64
2024/03/08 06:55:20;;;;;;;51.50;34.03;;;4.20;99.90;;;;;;5032281;28;20137;-64
2024/03/08 06:57:47;;;;;;;54.22;31.75;;;4.20;99.90;;;;;;5032698;28;20124;-65
2024/03/08 07:00:18;;;;;;;51.72;34.15;;;4.20;99.90;;;;;;5032517;28;20478;-66
2024/03/08 07:02:46;;;;;;;57.63;33.95;;;4.20;99.90;;;;;;5032479;28;20044;-66
2024/03/08 07:05:12;;;;;;;54.92;34.38;;;4.30;99.90;;;;;;5032494;28;20037;-67
2024/03/08 07:07:41;;;;;;;55.35;33.22;;;4.30;99.90;;;;;;5032390;28;20038;-67
2024/03/08 07:10:10;;;;;;;53.80;32.83;;;4.30;99.90;;;;;;5032178;28;20033;-67
2024/03/08 07:12:38;;;;;;;54.20;32.08;;;4.30;99.90;;;;;;5031448;28;20391;-65
2024/03/08 07:15:05;;;;;;;57.45;32.28;;;4.40;99.90;;;;;;5032297;28;20132;-66
2024/03/08 07:17:34;;;;;;;54.33;33.03;;;4.40;99.90;;;;;;5035947;28;20486;-66
2024/03/08 07:20:07;;;;;;;52.20;33.88;;;4.40;99.90;;;;;;5034949;28;20135;-64
2024/03/08 07:22:36;;;;;;;53.03;31.75;;;4.50;99.90;;;;;;5036211;28;20037;-63
2024/03/08 07:25:22;;;;;;;57.22;33.00;;;4.50;99.90;;;;;;5034307;28;20111;-66
2024/03/08 07:27:49;;;;;;;51.30;32.65;;;4.50;99.90;;;;;;5035657;28;20095;-67
2024/03/08 07:30:52;;;;;;;51.22;31.98;;;4.60;99.90;;;;;;5035478;28;20041;-64
2024/03/08 07:33:03;;;;;;;53.15;30.70;;;4.60;99.90;;;;;;5036029;28;20037;-64
2024/03/08 07:35:31;;;;;;;55.20;31.58;;;4.60;99.90;;;;;;5035401;28;20092;-64
2024/03/08 07:37:59;;;;;;;48.67;31.40;;;4.70;99.90;;;;;;5036052;28;20475;-64
2024/03/08 07:40:27;;;;;;;53.55;33.50;;;4.70;99.90;;;;;;5034286;28;20499;-65
2024/03/08 07:42:53;;;;;;;55.50;33.00;;;4.70;99.90;;;;;;5035929;28;20041;-65
2024/03/08 07:45:22;;;;;;;51.55;32.92;;;4.80;99.90;;;;;;5035382;28;20447;-63
2024/03/08 07:47:50;;;;;;;50.58;33.67;;;4.80;99.90;;;;;;5036090;28;20049;-63
2024/03/08 07:50:19;;;;;;;52.80;31.80;;;4.90;99.90;;;;;;5035786;28;20041;-65
2024/03/08 07:52:46;;;;;;;46.97;30.77;;;4.90;99.90;;;;;;5035753;28;20339;-63
2024/03/08 07:55:13;;;;;;;53.55;32.00;;;4.90;99.90;;;;;;5036025;28;20049;-63
2024/03/08 07:57:40;;;;;;;54.00;31.77;;;5.00;99.90;;;;;;5036603;28;20502;-66
2024/03/08 08:00:10;;;;;;;53.38;32.85;;;5.00;99.90;;;;;;5038672;28;20433;-66
2024/03/08 08:02:37;;;;;;;46.88;30.85;;;5.00;99.90;;;;;;5037987;28;20435;-67
2024/03/08 08:05:06;;;;;;;53.10;32.17;;;5.10;99.90;;;;;;5037810;28;20045;-67
2024/03/08 08:07:33;;;;;;;46.50;32.00;;;5.10;99.90;;;;;;5037669;28;20037;-67
2024/03/08 08:10:00;;;;;;;46.50;29.80;;;5.10;99.90;;;;;;5035215;28;20049;-66
2024/03/08 08:12:28;;;;;;;51.15;30.63;;;5.20;99.90;;;;;;5035123;28;20037;-66
2024/03/08 08:14:56;;;;;;;45.22;29.58;;;5.20;99.90;;;;;;5035042;28;20045;-67
2024/03/08 08:17:23;;;;;;;53.97;31.73;;;5.30;99.90;;;;;;5035519;28;20037;-66
2024/03/08 08:19:50;;;;;;;52.00;30.95;;;5.30;99.90;;;;;;5034847;28;20136;-67
2024/03/08 08:22:18;;;;;;;47.63;30.17;;;5.40;99.90;;;;;;5035030;28;20124;-67
2024/03/08 08:24:45;;;;;;;43.22;29.90;;;5.40;99.90;;;;;;5035121;28;20050;-67
2024/03/08 08:27:12;;;;;;;47.78;30.00;;;5.50;99.90;;;;;;5034034;28;20060;-67
2024/03/08 08:29:39;;;;;;;44.75;29.75;;;5.50;99.90;;;;;;5035045;28;20103;-67
2024/03/08 08:32:06;;;;;;;45.60;30.05;;;5.60;99.90;;;;;;5034739;28;20422;-67
2024/03/08 08:34:33;;;;;;;46.97;29.92;;;5.60;99.90;;;;;;5034804;28;20046;-67
2024/03/08 08:37:00;;;;;;;49.45;30.25;;;5.60;99.90;;;;;;5034392;28;20140;-67
2024/03/08 08:39:27;;;;;;;45.53;29.63;;;5.70;99.90;;;;;;5034492;28;20495;-67
2024/03/08 08:41:54;;;;;;;41.35;29.55;;;5.80;99.90;;;;;;5034435;28;20055;-66
2024/03/08 08:44:22;;;;;;;41.67;28.75;;;5.80;99.90;;;;;;5035025;28;20037;-67
2024/03/08 08:46:49;;;;;;;47.50;28.88;;;5.80;99.90;;;;;;5034622;28;20467;-66
2024/03/08 08:49:20;;;;;;;48.33;29.80;;;5.90;99.90;;;;;;5034449;28;20486;-66
2024/03/08 08:51:47;;;;;;;43.22;27.65;;;6.00;99.90;;;;;;5034338;28;20092;-67
2024/03/08 08:54:16;;;;;;;46.33;28.88;;;6.00;99.90;;;;;;5034679;28;20033;-67
2024/03/08 08:56:47;;;;;;;43.08;28.67;;;6.00;99.90;;;;;;5033957;28;20045;-67
2024/03/08 08:59:14;;;;;;;39.95;28.27;;;6.10;99.90;;;;;;5032480;28;20542;-66
2024/03/08 09:01:41;;;;;;;41.88;27.17;;;6.20;99.90;;;;;;5033222;28;20049;-66
2024/03/08 09:04:08;;;;;;;44.10;28.38;;;6.20;99.90;;;;;;5033575;28;20111;-66
2024/03/08 09:06:35;;;;;;;47.35;28.48;;;6.20;99.90;;;;;;5031952;28;20041;-66
2024/03/08 09:09:03;;;;;;;39.08;27.63;;;6.30;99.90;;;;;;5032976;28;20060;-65
2024/03/08 09:11:33;;;;;;;40.35;27.92;;;6.30;99.90;;;;;;5032396;28;20045;-65
2024/03/08 09:14:01;;;;;;;40.45;26.38;;;6.30;99.90;;;;;;5032182;28;20045;-66
2024/03/08 09:16:28;;;;;;;41.88;26.50;;;6.40;99.90;;;;;;5033107;28;20064;-66
2024/03/08 09:18:55;;;;;;;38.83;28.08;;;6.40;99.90;;;;;;5032668;28;20073;-65
2024/03/08 09:21:22;;;;;;;38.30;26.52;;;6.50;99.90;;;;;;5033425;28;20061;-65
2024/03/08 09:23:49;;;;;;;40.05;27.38;;;6.50;99.90;;;;;;5031934;28;20076;-65
2024/03/08 09:26:16;;;;;;;36.75;26.08;;;6.50;99.90;;;;;;5031796;28;20050;-65
2024/03/08 09:28:57;;;;;;;39.05;26.65;;;6.60;99.90;;;;;;5033340;28;20045;-67
2024/03/08 09:31:24;;;;;;;40.33;27.60;;;6.60;99.90;;;;;;5033376;28;20124;-66
2024/03/08 09:33:51;;;;;;;42.08;26.88;;;6.70;99.90;;;;;;5030703;28;20042;-67
2024/03/08 09:36:18;;;;;;;37.85;25.13;;;6.80;99.90;;;;;;5040544;28;20033;-63
2024/03/08 09:38:45;;;;;;;41.20;27.58;;;6.80;99.90;;;;;;5053546;28;20494;-64
2024/03/08 09:41:12;;;;;;;38.90;26.40;;;6.90;99.90;;;;;;5052492;28;20041;-64
2024/03/08 09:43:39;;;;;;;37.25;25.77;;;6.90;99.90;;;;;;5048989;28;20052;-64
2024/03/08 09:46:06;;;;;;;34.20;25.63;;;7.00;99.90;;;;;;5052338;28;20037;-64
2024/03/08 09:48:34;;;;;;;37.72;25.30;;;7.10;99.90;;;;;;5028360;28;20496;-64
2024/03/08 09:51:01;;;;;;;31.85;24.30;;;7.10;99.90;;;;;;5053618;28;20124;-62
2024/03/08 09:53:28;;;;;;;34.10;24.98;;;7.20;99.90;;;;;;5051690;28;20521;-63
2024/03/08 09:55:54;;;;;;;38.17;25.15;;;7.30;99.90;;;;;;5052954;28;20107;-66
2024/03/08 10:00:57;;;;;;;36.88;24.20;;;7.30;99.90;;;;;;5052224;28;20033;-64
2024/03/08 10:03:27;;;;;;;34.50;24.40;;;7.30;99.90;;;;;;5053399;28;20033;-64
2024/03/08 10:05:56;;;;;;;32.40;24.05;;;7.40;99.90;;;;;;5051853;28;20125;-64
2024/03/08 10:08:23;;;;;;;33.70;23.25;;;7.40;99.90;;;;;;5053023;28;20094;-64
2024/03/08 10:10:50;;;;;;;34.42;25.02;;;7.50;99.90;;;;;;5051815;28;20041;-64
2024/03/08 10:13:19;;;;;;;34.65;23.05;;;7.60;99.90;;;;;;5053038;28;20055;-64
2024/03/08 10:15:46;;;;;;;32.47;23.00;;;7.70;99.90;;;;;;5051301;28;20052;-64
2024/03/08 10:18:13;;;;;;;32.95;23.08;;;7.80;99.90;;;;;;5052740;28;20393;-64
2024/03/08 10:20:41;;;;;;;37.28;23.20;;;7.80;99.90;;;;;;5052908;28;20111;-64
2024/03/08 10:23:09;;;;;;;30.77;22.98;;;7.90;99.90;;;;;;5052022;28;20063;-64
2024/03/08 10:25:38;;;;;;;32.20;23.13;;;7.90;99.90;;;;;;5053087;28;20041;-64
2024/03/08 10:28:05;;;;;;;36.28;24.10;;;7.90;99.90;;;;;;5051451;28;20045;-64
2024/03/08 10:30:32;;;;;;;28.23;21.33;;;8.00;99.90;;;;;;5052784;28;20041;-64
2024/03/08 10:32:59;;;;;;;33.33;21.98;;;7.90;99.90;;;;;;5052653;28;20045;-63
2024/03/08 10:35:26;;;;;;;26.45;20.80;;;7.90;99.90;;;;;;5051263;28;20037;-62
2024/03/08 10:37:58;;;;;;;30.70;22.40;;;7.80;99.90;;;;;;5052258;28;20072;-62
2024/03/08 10:40:25;;;;;;;30.45;22.45;;;7.80;99.90;;;;;;5051209;28;20037;-62
2024/03/08 10:42:52;;;;;;;31.33;22.38;;;7.80;99.90;;;;;;5052351;28;20068;-62
2024/03/08 10:45:21;;;;;;;29.45;22.65;;;7.80;99.90;;;;;;5052051;28;20508;-62
2024/03/08 10:47:48;;;;;;;31.85;22.63;;;7.90;99.90;;;;;;5050803;28;20087;-63
2024/03/08 10:50:16;;;;;;;30.38;21.92;;;8.00;99.90;;;;;;5053858;28;20474;-64
2024/03/08 10:52:42;;;;;;;30.50;22.17;;;8.00;99.90;;;;;;5054909;28;20052;-64
2024/03/08 10:55:12;;;;;;;29.52;21.88;;;8.00;99.90;;;;;;5056215;28;20478;-64
2024/03/08 10:57:39;;;;;;;32.00;20.90;;;8.00;99.90;;;;;;5056487;28;20124;-64
2024/03/08 11:00:09;;;;;;;31.85;21.67;;;8.00;99.90;;;;;;5055209;28;20083;-64
2024/03/08 11:02:39;;;;;;;29.92;21.02;;;8.00;99.90;;;;;;5054581;28;20114;-65
2024/03/08 11:05:07;;;;;;;34.03;22.90;;;7.90;99.90;;;;;;5054917;28;20037;-65
2024/03/08 11:07:35;;;;;;;30.05;21.58;;;8.00;99.90;;;;;;5054023;28;20056;-65
2024/03/08 11:10:04;;;;;;;26.50;20.45;;;8.00;99.90;;;;;;5053873;28;20048;-64
2024/03/08 11:12:34;;;;;;;25.38;20.00;;;8.10;99.90;;;;;;5054959;28;20072;-64
2024/03/08 11:15:04;;;;;;;26.30;20.20;;;8.10;99.90;;;;;;5054903;28;20049;-64
2024/03/08 11:17:31;;;;;;;29.20;20.63;;;8.20;99.90;;;;;;5054802;28;20037;-64
2024/03/08 11:20:05;;;;;;;27.70;20.45;;;8.30;99.90;;;;;;5056386;28;20044;-63
2024/03/08 11:22:32;;;;;;;29.77;20.00;;;8.30;99.90;;;;;;5055903;28;20049;-63
2024/03/08 11:25:00;;;;;;;27.70;19.27;;;8.40;99.90;;;;;;5055640;28;20483;-63
2024/03/08 11:27:26;;;;;;;26.98;19.65;;;8.40;99.90;;;;;;5053194;28;20123;-64
2024/03/08 11:29:53;;;;;;;29.60;20.40;;;8.40;99.90;;;;;;5055630;28;20052;-64
2024/03/08 11:32:21;;;;;;;27.20;20.92;;;8.40;99.90;;;;;;5055567;28;20036;-64
2024/03/08 11:34:50;;;;;;;26.98;19.88;;;8.40;99.90;;;;;;5055555;28;20573;-64
2024/03/08 11:37:17;;;;;;;26.10;19.95;;;8.50;99.90;;;;;;5055588;28;20405;-64
2024/03/08 11:39:45;;;;;;;25.27;19.75;;;8.60;99.90;;;;;;5055642;28;20106;-64
2024/03/08 11:42:11;;;;;;;31.98;21.13;;;8.60;99.90;;;;;;5055383;28;20494;-65
2024/03/08 11:44:42;;;;;;;32.75;20.50;;;8.60;99.90;;;;;;5055568;28;20462;-64
2024/03/08 11:47:10;;;;;;;28.73;22.15;;;8.60;99.90;;;;;;5055511;28;20135;-65
2024/03/08 11:49:37;;;;;;;30.05;21.67;;;8.50;99.90;;;;;;5054850;28;20041;-65
2024/03/08 11:52:04;;;;;;;29.58;21.00;;;8.40;99.90;;;;;;5055926;28;20470;-64
2024/03/08 11:54:31;;;;;;;24.70;19.27;;;8.40;99.90;;;;;;5055491;28;20037;-64
2024/03/08 11:57:00;;;;;;;27.90;19.60;;;8.40;99.90;;;;;;5054016;28;20393;-65
2024/03/08 11:59:27;;;;;;;28.52;20.60;;;8.50;99.90;;;;;;5055037;28;20051;-64
2024/03/08 12:01:54;;;;;;;31.13;21.95;;;8.60;99.90;;;;;;5055139;28;20049;-65
2024/03/08 12:04:24;;;;;;;28.77;21.73;;;8.60;99.90;;;;;;5037603;28;20091;-65
2024/03/08 12:06:51;;;;;;;30.73;21.95;;;8.60;99.90;;;;;;5054798;28;20123;-65
2024/03/08 12:09:19;;;;;;;29.30;21.40;;;8.50;99.90;;;;;;5053450;28;20037;-65
2024/03/08 12:11:46;;;;;;;36.83;24.77;;;8.50;99.90;;;;;;5054854;28;20103;-66
2024/03/08 12:14:13;;;;;;;30.42;22.48;;;8.50;99.90;;;;;;5055252;28;20052;-67
2024/03/08 12:16:40;;;;;;;33.20;22.67;;;8.40;99.90;;;;;;5054746;28;20049;-66
2024/03/08 12:19:07;;;;;;;29.92;23.25;;;8.40;99.90;;;;;;5053600;28;20045;-66
2024/03/08 12:21:34;;;;;;;34.13;22.95;;;8.40;99.90;;;;;;5054838;28;20045;-67
2024/03/08 12:24:02;;;;;;;31.80;24.00;;;8.30;99.90;;;;;;5054979;28;20033;-66
2024/03/08 12:26:32;;;;;;;32.10;23.80;;;8.40;99.90;;;;;;5054531;28;20037;-67
2024/03/08 12:28:59;;;;;;;33.13;23.98;;;8.40;99.90;;;;;;5054264;28;20482;-66
2024/03/08 12:31:26;;;;;;;35.13;23.40;;;8.40;99.90;;;;;;5054328;28;20044;-66
2024/03/08 12:33:52;;;;;;;29.73;23.75;;;8.40;99.90;;;;;;5054171;28;20128;-66
2024/03/08 12:36:23;;;;;;;32.58;24.17;;;8.40;99.90;;;;;;5054409;28;20096;-66
2024/03/08 12:38:50;;;;;;;31.20;23.67;;;8.40;99.90;;;;;;5053295;28;20029;-66